Time;durP1;ratioP1;P1;durP2;ratioP2;P2;SDS_P1;SDS_P2;PMS_P1;PMS_P2;Temp;Humidity;BMP_temperature;BMP_pressure;BME280_temperature;BME280_humidity;BME280_pressure;Samples;Min_cycle;Max_cycle;Signal;HPM_P1;HPM_P2
2023/06/05 00:01:12;;;;;;;3.50;3.20;;;;;;;11.29;100.00;96533.53;7401313;19;20408;-74
2023/06/05 00:03:39;;;;;;;4.70;2.57;;;;;;;11.32;100.00;96509.06;7402666;19;20459;-74
2023/06/05 00:06:06;;;;;;;3.70;3.40;;;;;;;11.57;100.00;96509.91;7401626;19;20392;-74
2023/06/05 00:08:33;;;;;;;2.83;2.27;;;;;;;11.55;100.00;96494.34;7400260;19;20407;-73
2023/06/05 00:11:00;;;;;;;3.10;2.87;;;;;;;11.76;97.49;96515.47;7400732;19;20738;-74
2023/06/05 00:13:27;;;;;;;2.53;2.33;;;;;;;11.65;98.53;96514.34;7400847;19;20400;-74
2023/06/05 00:15:56;;;;;;;3.67;2.60;;;;;;;11.68;99.65;96528.81;7401136;19;20379;-74
2023/06/05 00:18:23;;;;;;;2.83;2.60;;;;;;;11.08;100.00;96501.78;7400716;19;20381;-74
2023/06/05 00:20:49;;;;;;;7.20;3.20;;;;;;;11.08;100.00;96498.38;7402156;19;20369;-75
2023/06/05 00:23:16;;;;;;;6.43;3.20;;;;;;;11.10;100.00;96530.59;7397697;19;20440;-74
2023/06/05 00:25:43;;;;;;;4.87;2.77;;;;;;;10.81;100.00;96507.63;7402135;19;20382;-74
2023/06/05 00:28:10;;;;;;;4.53;2.90;;;;;;;10.90;100.00;96516.28;7396988;19;20364;-74
2023/06/05 00:30:38;;;;;;;5.03;2.40;;;;;;;11.23;100.00;96532.19;7400396;19;20896;-74
2023/06/05 00:33:05;;;;;;;6.40;2.70;;;;;;;11.05;100.00;96505.09;7398053;19;20444;-74
2023/06/05 00:35:32;;;;;;;5.60;2.70;;;;;;;11.31;100.00;96533.22;7400746;19;20383;-74
2023/06/05 00:38:02;;;;;;;4.07;3.43;;;;;;;11.05;100.00;96509.63;7396972;19;20356;-74
2023/06/05 00:40:29;;;;;;;3.20;2.53;;;;;;;11.35;100.00;96526.97;7400467;19;20380;-74
2023/06/05 00:42:56;;;;;;;6.50;3.17;;;;;;;10.79;100.00;96523.03;7398124;19;20419;-74
2023/06/05 00:45:23;;;;;;;3.00;2.70;;;;;;;10.82;100.00;96507.31;7400819;19;20364;-75
2023/06/05 00:47:50;;;;;;;4.37;3.20;;;;;;;10.92;100.00;96524.66;7398805;19;20353;-74
2023/06/05 00:50:21;;;;;;;4.53;2.80;;;;;;;10.63;100.00;96481.31;7400638;19;20433;-74
2023/06/05 00:52:50;;;;;;;4.10;2.77;;;;;;;10.88;100.00;96497.31;7398688;19;20401;-74
2023/06/05 00:55:17;;;;;;;2.87;2.27;;;;;;;10.52;100.00;96511.09;7400528;19;20357;-75
2023/06/05 00:57:44;;;;;;;5.10;3.00;;;;;;;10.26;100.00;96488.22;7399192;19;20417;-75
2023/06/05 01:00:12;;;;;;;2.80;2.60;;;;;;;10.54;100.00;96507.03;7400343;19;20401;-75
2023/06/05 01:02:40;;;;;;;3.10;2.80;;;;;;;10.73;100.00;96513.75;7400313;19;20410;-75
2023/06/05 01:05:08;;;;;;;3.13;2.83;;;;;;;10.56;100.00;96507.50;7401852;19;20714;-75
2023/06/05 01:07:37;;;;;;;4.67;3.07;;;;;;;10.40;100.00;96493.28;7398118;19;20760;-74
2023/06/05 01:10:10;;;;;;;3.53;3.00;;;;;;;10.58;100.00;96489.44;7399313;19;20372;-74
2023/06/05 01:12:51;;;;;;;3.23;2.83;;;;;;;10.63;100.00;96525.47;7398170;19;20982;-75
2023/06/05 01:15:28;;;;;;;5.60;3.43;;;;;;;10.32;100.00;96497.53;7397638;19;20404;-75
2023/06/05 01:17:57;;;;;;;2.87;2.67;;;;;;;10.44;100.00;96507.41;7400309;19;20770;-75
2023/06/05 01:20:39;;;;;;;3.97;2.67;;;;;;;10.10;100.00;96499.63;7397848;19;20376;-75
2023/06/05 01:23:07;;;;;;;5.67;3.80;;;;;;;10.30;100.00;96499.72;7398966;19;20455;-75
2023/06/05 01:25:36;;;;;;;3.30;3.00;;;;;;;10.43;100.00;96515.66;7399031;19;20403;-74
2023/06/05 01:28:07;;;;;;;3.40;2.53;;;;;;;9.98;100.00;96511.63;7395586;19;20401;-74
2023/06/05 01:30:36;;;;;;;2.47;2.20;;;;;;;9.93;100.00;96513.69;7398314;19;20372;-74
2023/06/05 01:33:12;;;;;;;3.13;2.40;;;;;;;10.03;100.00;96497.50;7396111;19;20783;-74
2023/06/05 01:35:40;;;;;;;3.50;2.80;;;;;;;9.95;100.00;96495.66;7400230;19;20912;-74
2023/06/05 01:38:10;;;;;;;4.57;3.20;;;;;;;9.77;100.00;96492.31;7398652;19;20419;-75
2023/06/05 01:40:38;;;;;;;2.50;2.30;;;;;;;10.04;100.00;96501.69;7397236;19;20925;-74
2023/06/05 01:43:08;;;;;;;2.60;2.40;;;;;;;9.88;100.00;96519.94;7396573;19;20434;-75
2023/06/05 01:45:37;;;;;;;3.30;2.77;;;;;;;10.02;100.00;96523.13;7398612;19;20809;-75
2023/06/05 01:48:05;;;;;;;2.57;2.37;;;;;;;9.90;100.00;96496.63;7395666;19;20414;-75
2023/06/05 01:50:36;;;;;;;2.93;2.20;;;;;;;9.38;100.00;96506.56;7398938;19;20372;-75
2023/06/05 01:53:04;;;;;;;3.27;2.90;;;;;;;9.25;100.00;96489.81;7396074;19;20429;-75
2023/06/05 01:55:31;;;;;;;2.40;2.20;;;;;;;9.24;100.00;96490.13;7398981;19;20404;-75
2023/06/05 01:57:59;;;;;;;2.93;2.63;;;;;;;9.42;100.00;96502.97;7397060;19;20381;-75
2023/06/05 02:00:27;;;;;;;3.60;2.93;;;;;;;9.66;100.00;96491.09;7398608;19;20826;-75
2023/06/05 02:02:54;;;;;;;3.77;3.47;;;;;;;9.59;100.00;96470.47;7396805;19;20432;-75
2023/06/05 02:05:21;;;;;;;5.53;2.57;;;;;;;9.51;100.00;96502.19;7398496;19;20900;-75
2023/06/05 02:07:53;;;;;;;3.13;2.83;;;;;;;9.36;100.00;96498.97;7396522;19;20384;-75
2023/06/05 02:10:21;;;;;;;2.97;2.77;;;;;;;9.32;100.00;96476.91;7395884;19;20383;-74
2023/06/05 02:12:48;;;;;;;3.10;2.80;;;;;;;9.16;100.00;96465.31;7396689;19;20409;-74
2023/06/05 02:15:16;;;;;;;4.03;2.83;;;;;;;9.67;100.00;96492.66;7397309;19;20408;-75
2023/06/05 02:17:50;;;;;;;3.13;2.60;;;;;;;9.58;100.00;96491.91;7397312;19;20404;-75
2023/06/05 02:20:18;;;;;;;3.23;2.93;;;;;;;9.31;100.00;96456.88;7396207;19;20356;-75
2023/06/05 02:22:49;;;;;;;2.70;2.50;;;;;;;8.85;100.00;96462.84;7398607;19;20392;-75
2023/06/05 02:25:17;;;;;;;2.63;2.40;;;;;;;9.18;100.00;96481.59;7397657;19;20404;-75
2023/06/05 02:27:44;;;;;;;6.83;3.33;;;;;;;9.19;100.00;96481.28;7422916;19;20420;-75
2023/06/05 02:30:12;;;;;;;2.80;2.40;;;;;;;8.57;100.00;96436.03;7429700;19;20384;-74
2023/06/05 02:32:43;;;;;;;2.47;2.20;;;;;;;8.62;100.00;96469.38;7423979;19;20394;-74
2023/06/05 02:35:11;;;;;;;3.07;2.30;;;;;;;8.56;100.00;96445.81;7395456;19;20329;-74
2023/06/05 02:37:43;;;;;;;11.40;7.60;;;;;;;9.00;100.00;96472.94;7395365;19;20381;-75
2023/06/05 02:40:12;;;;;;;4.40;3.27;;;;;;;8.76;100.00;96433.09;7396256;19;20904;-75
2023/06/05 02:42:40;;;;;;;3.17;2.87;;;;;;;9.06;100.00;96466.38;7394401;19;20472;-75
2023/06/05 02:45:08;;;;;;;3.00;2.70;;;;;;;8.76;100.00;96446.25;7395927;19;20889;-75
2023/06/05 02:47:35;;;;;;;4.40;3.10;;;;;;;8.47;100.00;96460.81;7394412;19;20451;-75
2023/06/05 02:50:03;;;;;;;3.13;2.93;;;;;;;8.44;100.00;96431.69;7395753;19;20380;-75
2023/06/05 02:52:35;;;;;;;2.77;2.40;;;;;;;8.65;100.00;96440.53;7392568;19;20435;-74
2023/06/05 02:55:09;;;;;;;3.60;2.80;;;;;;;8.76;100.00;96464.72;7396547;19;20380;-74
2023/06/05 02:57:41;;;;;;;2.77;2.30;;;;;;;8.88;100.00;96451.69;7394926;19;20404;-74
2023/06/05 03:00:16;;;;;;;3.60;3.30;;;;;;;8.67;100.00;96461.28;7396533;19;20439;-74
2023/06/05 03:02:49;;;;;;;3.33;3.00;;;;;;;8.38;100.00;96461.91;7394584;19;20412;-74
2023/06/05 03:05:26;;;;;;;3.33;2.60;;;;;;;8.51;100.00;96455.72;7393676;19;20393;-74
2023/06/05 03:08:01;;;;;;;5.20;2.60;;;;;;;8.19;100.00;96455.03;7395267;19;20405;-74
2023/06/05 03:10:29;;;;;;;2.43;2.23;;;;;;;8.45;100.00;96441.16;7394639;19;20372;-74
2023/06/05 03:12:56;;;;;;;2.83;2.63;;;;;;;8.53;100.00;96453.53;7394992;19;20424;-74
2023/06/05 03:15:27;;;;;;;4.73;3.10;;;;;;;8.52;100.00;96436.19;7394701;19;20368;-74
2023/06/05 03:17:55;;;;;;;7.13;3.23;;;;;;;8.59;100.00;96449.69;7396146;19;20373;-73
2023/06/05 03:20:22;;;;;;;2.93;2.67;;;;;;;8.61;100.00;96428.28;7394259;19;20391;-74
2023/06/05 03:22:50;;;;;;;11.13;3.13;;;;;;;8.87;100.00;96450.91;7395598;19;20508;-74
2023/06/05 03:25:17;;;;;;;14.00;6.30;;;;;;;8.74;100.00;96438.66;7394625;19;20401;-74
2023/06/05 03:27:49;;;;;;;10.47;4.20;;;;;;;8.79;100.00;96456.94;7395796;19;20408;-74
2023/06/05 03:30:18;;;;;;;9.20;3.67;;;;;;;8.63;100.00;96461.16;7394392;19;20380;-74
2023/06/05 03:32:50;;;;;;;9.07;3.40;;;;;;;8.86;100.00;96459.13;7398868;19;20424;-74
2023/06/05 03:35:18;;;;;;;9.73;3.30;;;;;;;8.69;100.00;96454.66;7399158;19;20364;-74
2023/06/05 03:37:45;;;;;;;5.60;3.90;;;;;;;8.18;100.00;96460.59;7400550;19;20368;-74
2023/06/05 03:40:12;;;;;;;10.13;3.40;;;;;;;8.44;100.00;96458.03;7398196;19;20892;-74
2023/06/05 03:42:40;;;;;;;6.57;3.17;;;;;;;8.41;100.00;96445.47;7396201;19;20412;-74
2023/06/05 03:45:08;;;;;;;9.33;3.40;;;;;;;8.13;100.00;96440.44;7397137;19;20404;-74
2023/06/05 03:47:37;;;;;;;5.87;3.57;;;;;;;8.32;100.00;96471.78;7395977;19;20373;-74
2023/06/05 03:50:07;;;;;;;8.23;3.17;;;;;;;8.14;100.00;96463.06;7398193;19;20894;-75
2023/06/05 03:52:39;;;;;;;10.90;3.60;;;;;;;8.04;100.00;96466.00;7395278;19;20408;-75
2023/06/05 03:55:08;;;;;;;13.80;3.40;;;;;;;7.99;100.00;96442.44;7397736;19;20925;-74
2023/06/05 03:57:38;;;;;;;4.67;2.70;;;;;;;8.00;100.00;96463.19;7396001;19;20908;-74
2023/06/05 04:00:10;;;;;;;7.37;3.07;;;;;;;7.90;100.00;96439.78;7394755;19;20396;-74
2023/06/05 04:02:50;;;;;;;9.53;4.03;;;;;;;7.98;100.00;96462.72;7395991;19;20427;-74
2023/06/05 04:05:18;;;;;;;7.23;4.03;;;;;;;7.76;100.00;96433.88;7402906;19;20459;-74
2023/06/05 04:07:45;;;;;;;4.83;3.23;;;;;;;8.06;100.00;96458.56;7400426;19;20375;-74
2023/06/05 04:10:11;;;;;;;5.13;3.00;;;;;;;8.20;100.00;96450.53;7402431;19;20412;-74
2023/06/05 04:12:39;;;;;;;5.57;3.23;;;;;;;8.24;100.00;96456.72;7400448;19;20416;-74
2023/06/05 04:15:09;;;;;;;9.33;3.40;;;;;;;8.43;100.00;96483.63;7400000;19;20372;-74
2023/06/05 04:17:37;;;;;;;9.70;3.17;;;;;;;8.56;100.00;96481.94;7401008;19;20397;-74
2023/06/05 04:20:13;;;;;;;6.03;2.87;;;;;;;8.09;100.00;96463.22;7399246;19;20364;-74
2023/06/05 04:22:42;;;;;;;5.30;2.97;;;;;;;8.66;100.00;96480.81;7400712;19;20511;-75
2023/06/05 04:25:10;;;;;;;7.40;4.57;;;;;;;8.81;100.00;96488.28;7399462;19;20764;-74
2023/06/05 04:27:38;;;;;;;5.03;2.83;;;;;;;8.89;100.00;96472.47;7400768;19;20779;-74
2023/06/05 04:30:07;;;;;;;8.97;3.30;;;;;;;8.87;100.00;96489.69;7399126;19;20405;-74
2023/06/05 04:32:37;;;;;;;6.57;3.50;;;;;;;8.84;100.00;96492.94;7402545;19;20426;-74
2023/06/05 04:35:11;;;;;;;7.80;3.23;;;;;;;8.71;100.00;96492.00;7399826;19;20388;-74
2023/06/05 04:37:39;;;;;;;3.90;3.00;;;;;;;8.88;100.00;96494.66;7402922;19;20428;-74
2023/06/05 04:40:09;;;;;;;7.10;3.30;;;;;;;8.57;100.00;96473.72;7399985;19;20376;-74
2023/06/05 04:42:37;;;;;;;13.00;3.93;;;;;;;9.06;100.00;96498.03;7401077;19;20728;-74
2023/06/05 04:45:07;;;;;;;9.17;3.40;;;;;;;9.00;100.00;96465.00;7399998;19;20396;-74
2023/06/05 04:47:37;;;;;;;8.63;4.00;;;;;;;9.04;100.00;96465.94;7398521;19;20770;-74
2023/06/05 04:50:06;;;;;;;6.43;3.73;;;;;;;9.26;100.00;96493.22;7400087;19;20741;-74
2023/06/05 04:52:35;;;;;;;13.23;4.23;;;;;;;9.09;100.00;96471.06;7398233;19;20417;-74
2023/06/05 04:55:03;;;;;;;3.60;3.03;;;;;;;9.10;100.00;96434.91;7400182;19;20396;-74
2023/06/05 04:57:31;;;;;;;3.30;3.00;;;;;;;9.83;100.00;96493.69;7398401;19;20365;-74
2023/06/05 05:00:04;;;;;;;8.50;3.57;;;;;;;9.95;100.00;96472.66;7400067;19;20384;-74
2023/06/05 05:02:31;;;;;;;6.67;3.10;;;;;;;9.93;100.00;96492.56;7398301;19;20452;-74
2023/06/05 05:04:58;;;;;;;10.33;3.43;;;;;;;9.58;100.00;96465.50;7400454;19;20810;-74
2023/06/05 05:07:26;;;;;;;9.83;3.47;;;;;;;9.59;100.00;96474.97;7398821;19;20390;-74
2023/06/05 05:09:53;;;;;;;15.17;3.43;;;;;;;9.70;100.00;96457.69;7398056;19;20388;-74
2023/06/05 05:12:20;;;;;;;4.03;2.67;;;;;;;9.94;100.00;96476.41;7398500;19;20352;-74
2023/06/05 05:14:47;;;;;;;4.60;4.17;;;;;;;10.12;100.00;96487.66;7397984;19;20752;-74
2023/06/05 05:17:16;;;;;;;4.27;3.20;;;;;;;10.28;100.00;96474.69;7399980;19;20383;-74
2023/06/05 05:19:44;;;;;;;5.33;3.20;;;;;;;10.39;100.00;96451.31;7399607;19;20411;-74
2023/06/05 05:22:12;;;;;;;8.07;3.23;;;;;;;10.91;100.00;96486.84;7399845;19;20412;-74
2023/06/05 05:24:39;;;;;;;5.00;4.00;;;;;;;11.08;100.00;96493.84;7400080;19;20467;-74
2023/06/05 05:27:08;;;;;;;7.90;3.70;;;;;;;11.18;100.00;96479.44;7398550;19;20376;-74
2023/06/05 05:29:35;;;;;;;3.73;3.00;;;;;;;11.32;100.00;96464.06;7397961;19;20376;-75
2023/06/05 05:32:02;;;;;;;7.83;4.10;;;;;;;11.43;100.00;96502.25;7398284;19;20420;-75
2023/06/05 05:34:30;;;;;;;4.53;3.10;;;;;;;11.38;100.00;96470.72;7398087;19;20476;-75
2023/06/05 05:36:58;;;;;;;5.13;3.07;;;;;;;12.20;100.00;96501.75;7398073;19;20364;-75
2023/06/05 05:39:25;;;;;;;3.80;2.83;;;;;;;12.17;100.00;96484.63;7400350;19;20386;-74
2023/06/05 05:41:52;;;;;;;8.33;3.87;;;;;;;12.39;100.00;96481.50;7397760;19;20988;-74
2023/06/05 05:44:19;;;;;;;4.50;2.67;;;;;;;12.82;100.00;96509.28;7397823;19;20432;-74
2023/06/05 05:46:47;;;;;;;6.40;3.60;;;;;;;12.90;100.00;96489.78;7398099;19;20349;-74
2023/06/05 05:49:14;;;;;;;4.10;3.13;;;;;;;12.96;100.00;96499.06;7396432;19;20357;-72
2023/06/05 05:51:41;;;;;;;6.10;3.53;;;;;;;13.18;100.00;96512.91;7397766;19;20369;-72
2023/06/05 05:54:08;;;;;;;5.30;3.83;;;;;;;13.18;100.00;96491.69;7394141;19;20433;-72
2023/06/05 05:56:36;;;;;;;6.77;3.57;;;;;;;13.43;100.00;96477.22;7397616;19;20368;-72
2023/06/05 05:59:03;;;;;;;8.90;3.70;;;;;;;13.73;100.00;96498.84;7396187;19;20396;-72
2023/06/05 06:01:32;;;;;;;6.03;3.10;;;;;;;14.43;100.00;96522.16;7397630;19;20373;-72
2023/06/05 06:03:59;;;;;;;3.93;2.63;;;;;;;14.56;98.76;96504.22;7394581;19;20443;-72
2023/06/05 06:06:26;;;;;;;3.17;2.60;;;;;;;15.17;96.09;96519.56;7399338;19;20345;-72
2023/06/05 06:08:53;;;;;;;7.50;5.23;;;;;;;15.36;91.11;96509.69;7395096;19;20354;-72
2023/06/05 06:11:20;;;;;;;6.60;2.87;;;;;;;16.04;88.08;96524.22;7397340;19;20698;-72
2023/06/05 06:13:48;;;;;;;4.90;2.67;;;;;;;15.44;87.37;96505.22;7395122;19;20434;-72
2023/06/05 06:16:15;;;;;;;3.00;2.33;;;;;;;15.89;86.23;96504.56;7397787;19;20385;-72
2023/06/05 06:18:42;;;;;;;11.53;3.13;;;;;;;15.90;85.19;96500.75;7396226;19;20424;-72
2023/06/05 06:21:10;;;;;;;4.03;3.13;;;;;;;16.32;84.18;96505.22;7397591;19;20344;-72
2023/06/05 06:23:37;;;;;;;3.70;3.40;;;;;;;16.37;83.49;96499.56;7394808;19;20404;-72
2023/06/05 06:26:06;;;;;;;3.03;2.83;;;;;;;16.70;83.23;96490.91;7397111;19;20414;-72
2023/06/05 06:28:33;;;;;;;4.30;2.97;;;;;;;16.86;81.32;96493.41;7395541;19;20457;-72
2023/06/05 06:31:00;;;;;;;2.50;2.40;;;;;;;17.23;78.91;96501.50;7397502;19;20377;-72
2023/06/05 06:33:29;;;;;;;4.90;2.60;;;;;;;17.15;78.26;96513.22;7395095;19;20501;-72
2023/06/05 06:35:58;;;;;;;5.70;2.83;;;;;;;16.88;76.59;96496.47;7397790;19;20905;-72
2023/06/05 06:38:30;;;;;;;4.70;2.90;;;;;;;16.86;77.24;96506.00;7395419;19;20381;-73
2023/06/05 06:40:58;;;;;;;3.40;3.10;;;;;;;17.48;77.21;96493.72;7397291;19;20903;-73
2023/06/05 06:43:25;;;;;;;3.37;3.00;;;;;;;17.63;76.30;96514.13;7394971;19;20445;-73
2023/06/05 06:46:04;;;;;;;5.10;2.80;;;;;;;17.28;78.34;96525.22;7394768;19;20358;-72
2023/06/05 06:48:32;;;;;;;5.90;3.50;;;;;;;16.88;76.57;96499.16;7396467;19;20377;-73
2023/06/05 06:50:59;;;;;;;3.60;3.03;;;;;;;17.25;77.80;96507.22;7396192;19;20824;-73
2023/06/05 06:53:26;;;;;;;4.80;3.80;;;;;;;17.36;75.41;96510.00;7395056;19;20418;-72
2023/06/05 06:55:53;;;;;;;3.57;3.20;;;;;;;17.41;74.13;96504.34;7394789;19;20441;-72
2023/06/05 06:58:20;;;;;;;3.40;2.97;;;;;;;17.59;73.66;96494.59;7395676;19;20365;-72
2023/06/05 07:00:49;;;;;;;6.70;3.33;;;;;;;18.02;73.91;96530.56;7394666;19;20377;-73
2023/06/05 07:03:16;;;;;;;3.50;2.70;;;;;;;18.23;73.89;96527.31;7394952;19;20944;-73
2023/06/05 07:05:43;;;;;;;3.77;3.47;;;;;;;18.19;74.19;96518.47;7395027;19;20514;-73
2023/06/05 07:08:10;;;;;;;4.93;3.30;;;;;;;18.16;71.74;96487.13;7396006;19;20402;-73
2023/06/05 07:10:36;;;;;;;3.47;3.23;;;;;;;18.04;72.82;96508.03;7394025;19;20364;-73
2023/06/05 07:13:03;;;;;;;3.90;3.60;;;;;;;18.12;72.25;96501.59;7395034;19;20419;-72
2023/06/05 07:15:30;;;;;;;3.50;3.20;;;;;;;18.44;72.56;96525.94;7394433;19;20373;-72
2023/06/05 07:17:57;;;;;;;4.67;4.10;;;;;;;18.27;70.84;96521.97;7395813;19;20908;-73
2023/06/05 07:20:24;;;;;;;4.00;2.93;;;;;;;19.05;70.60;96527.84;7394324;19;20458;-73
2023/06/05 07:22:51;;;;;;;3.90;3.60;;;;;;;18.72;70.77;96507.41;7395307;19;20813;-73
2023/06/05 07:25:20;;;;;;;3.83;3.40;;;;;;;18.40;73.83;96509.81;7394857;19;20378;-73
2023/06/05 07:27:48;;;;;;;6.90;3.50;;;;;;;18.80;73.25;96510.84;7396246;19;20838;-73
2023/06/05 07:30:15;;;;;;;4.53;3.80;;;;;;;18.60;71.74;96497.72;7393028;19;20418;-73
2023/06/05 07:32:42;;;;;;;5.00;4.33;;;;;;;18.99;71.93;96509.81;7395524;19;20409;-73
2023/06/05 07:35:09;;;;;;;5.33;4.07;;;;;;;19.25;71.65;96517.59;7394164;19;20734;-73
2023/06/05 07:37:36;;;;;;;6.83;3.80;;;;;;;18.64;72.61;96454.91;7398283;19;20374;-73
2023/06/05 07:40:05;;;;;;;4.60;4.20;;;;;;;18.47;74.22;96483.09;7401691;19;20413;-72
2023/06/05 07:42:32;;;;;;;7.73;4.37;;;;;;;18.50;74.55;96479.69;7404382;19;20398;-73
2023/06/05 07:44:59;;;;;;;7.57;4.70;;;;;;;18.54;74.80;96509.91;7402173;19;20876;-73
2023/06/05 07:47:27;;;;;;;4.37;4.07;;;;;;;18.92;74.33;96507.09;7403337;19;20871;-72
2023/06/05 07:49:59;;;;;;;5.53;3.73;;;;;;;19.09;74.42;96517.13;7400462;19;20347;-72
2023/06/05 07:52:27;;;;;;;4.43;4.03;;;;;;;19.00;75.22;96516.72;7399886;19;20355;-72
2023/06/05 07:54:54;;;;;;;5.20;4.20;;;;;;;18.71;74.71;96489.78;7401891;19;20393;-73
2023/06/05 07:57:21;;;;;;;4.87;4.37;;;;;;;18.33;76.93;96495.63;7400682;19;20405;-73
2023/06/05 07:59:49;;;;;;;5.30;4.80;;;;;;;17.98;79.19;96488.88;7402379;19;20378;-72
2023/06/05 08:02:17;;;;;;;5.90;4.20;;;;;;;18.02;79.47;96479.72;7399885;19;20347;-72
2023/06/05 08:04:44;;;;;;;6.57;5.20;;;;;;;17.63;81.16;96490.06;7402998;19;20360;-73
2023/06/05 08:07:11;;;;;;;6.57;4.73;;;;;;;17.69;81.86;96490.53;7401427;19;20444;-72
2023/06/05 08:09:41;;;;;;;5.00;4.60;;;;;;;18.17;81.43;96502.03;7400087;19;20380;-73
2023/06/05 08:12:08;;;;;;;5.00;4.27;;;;;;;18.07;81.16;96497.34;7400353;19;20780;-73
2023/06/05 08:14:36;;;;;;;7.23;5.10;;;;;;;18.06;83.41;96500.41;7399166;19;20465;-73
2023/06/05 08:17:03;;;;;;;5.20;4.70;;;;;;;18.06;83.05;96490.47;7401945;19;20914;-73
2023/06/05 08:19:30;;;;;;;5.43;4.87;;;;;;;18.11;83.72;96502.72;7401888;19;20394;-73
2023/06/05 08:21:58;;;;;;;4.93;4.23;;;;;;;18.20;84.18;96503.97;7401663;19;20428;-73
2023/06/05 08:24:26;;;;;;;9.33;4.60;;;;;;;18.38;84.31;96482.66;7399093;19;20432;-73
2023/06/05 08:26:54;;;;;;;5.57;5.07;;;;;;;18.04;86.11;96492.75;7400188;19;20404;-73
2023/06/05 08:29:20;;;;;;;5.57;5.07;;;;;;;18.05;84.94;96482.81;7400548;19;20358;-73
2023/06/05 08:31:47;;;;;;;4.53;4.17;;;;;;;18.32;84.38;96481.47;7399895;19;20433;-73
2023/06/05 08:34:14;;;;;;;5.07;4.57;;;;;;;18.94;83.16;96494.09;7398899;19;20440;-73
2023/06/05 08:36:42;;;;;;;4.60;4.23;;;;;;;18.89;82.71;96496.00;7401344;19;20345;-73
2023/06/05 08:39:09;;;;;;;7.53;4.80;;;;;;;19.55;80.20;96479.78;7401560;19;20422;-73
2023/06/05 08:41:37;;;;;;;9.00;4.60;;;;;;;19.85;80.86;96505.50;7401370;19;20349;-73
2023/06/05 08:44:04;;;;;;;6.40;5.80;;;;;;;19.61;83.49;96480.91;7400734;19;20406;-73
2023/06/05 08:46:36;;;;;;;7.50;5.20;;;;;;;19.97;83.87;96489.78;7401128;19;20695;-73
2023/06/05 08:49:10;;;;;;;5.80;5.30;;;;;;;19.85;83.13;96465.22;7399503;19;20342;-74
2023/06/05 08:51:39;;;;;;;5.67;5.07;;;;;;;20.14;81.56;96474.81;7399791;19;20351;-73
2023/06/05 08:54:12;;;;;;;5.50;5.00;;;;;;;20.00;81.32;96496.28;7396486;19;20429;-73
2023/06/05 08:56:41;;;;;;;7.17;4.97;;;;;;;20.35;79.46;96484.78;7401871;19;20346;-73
2023/06/05 08:59:10;;;;;;;5.03;4.63;;;;;;;20.59;79.03;96486.69;7398262;19;20784;-72
2023/06/05 09:01:37;;;;;;;5.63;5.00;;;;;;;20.55;79.65;96488.59;7400172;19;20376;-73
2023/06/05 09:04:04;;;;;;;5.53;5.03;;;;;;;20.41;80.46;96493.97;7398422;19;20402;-73
2023/06/05 09:06:34;;;;;;;6.00;5.27;;;;;;;19.99;79.34;96487.47;7400977;19;20374;-73
2023/06/05 09:09:01;;;;;;;5.13;4.63;;;;;;;19.86;81.33;96486.31;7398424;19;20394;-73
2023/06/05 09:11:30;;;;;;;5.50;5.00;;;;;;;19.87;80.67;96487.84;7399763;19;20402;-73
2023/06/05 09:13:59;;;;;;;9.30;6.07;;;;;;;19.90;81.13;96471.00;7396552;19;20443;-73
2023/06/05 09:16:37;;;;;;;7.60;5.23;;;;;;;20.21;81.69;96487.47;7401476;19;20348;-72
2023/06/05 09:19:06;;;;;;;8.47;5.13;;;;;;;19.86;81.29;96490.91;7399129;19;20410;-73
2023/06/05 09:21:33;;;;;;;6.90;5.70;;;;;;;20.03;81.92;96493.63;7400060;19;20935;-73
2023/06/05 09:24:18;;;;;;;9.53;5.77;;;;;;;20.27;82.06;96493.97;7397062;19;20444;-72
2023/06/05 09:27:08;;;;;;;8.33;5.37;;;;;;;19.80;82.63;96479.03;7398062;19;20377;-72
2023/06/05 09:29:38;;;;;;;7.93;5.23;;;;;;;19.88;83.65;96496.66;7400744;19;20407;-73
2023/06/05 09:32:07;;;;;;;6.70;5.23;;;;;;;20.00;84.07;96499.75;7398524;19;20384;-73
2023/06/05 09:34:40;;;;;;;6.07;5.47;;;;;;;19.78;85.46;96496.28;7394887;19;20441;-73
2023/06/05 09:37:07;;;;;;;5.20;4.70;;;;;;;19.81;85.10;96513.53;7398344;19;20377;-73
2023/06/05 09:39:36;;;;;;;6.70;5.13;;;;;;;19.74;85.60;96502.78;7396815;19;20386;-73
2023/06/05 09:42:03;;;;;;;7.90;5.63;;;;;;;19.70;85.21;96499.34;7398612;19;20377;-72
2023/06/05 09:44:32;;;;;;;6.63;5.43;;;;;;;19.44;86.47;96468.22;7394957;19;20462;-72
2023/06/05 09:47:09;;;;;;;6.97;6.27;;;;;;;19.58;86.16;96502.38;7399151;19;20398;-73
2023/06/05 09:49:39;;;;;;;6.30;5.70;;;;;;;19.52;87.14;96503.88;7396571;19;20999;-72
2023/06/05 09:52:08;;;;;;;6.60;5.47;;;;;;;19.62;88.60;96505.81;7398886;19;20393;-72
2023/06/05 09:54:45;;;;;;;9.33;5.63;;;;;;;19.52;88.21;96501.19;7395431;19;20466;-72
2023/06/05 09:57:14;;;;;;;8.30;5.60;;;;;;;19.73;87.71;96477.09;7399364;19;20379;-73
2023/06/05 09:59:54;;;;;;;5.73;5.27;;;;;;;19.92;89.34;96506.28;7397233;19;20371;-73
2023/06/05 10:02:25;;;;;;;6.97;5.67;;;;;;;19.31;89.00;96488.50;7396285;19;20698;-73
2023/06/05 10:05:04;;;;;;;5.93;5.33;;;;;;;19.09;91.91;96471.56;7398424;19;20394;-72
2023/06/05 10:07:35;;;;;;;9.20;6.33;;;;;;;19.59;89.95;96499.31;7396795;19;20351;-72
2023/06/05 10:10:02;;;;;;;5.87;5.37;;;;;;;19.52;89.44;96495.84;7397505;19;20387;-73
2023/06/05 10:12:30;;;;;;;6.53;5.27;;;;;;;19.55;90.16;96463.69;7396331;19;20968;-73
2023/06/05 10:14:58;;;;;;;6.63;5.53;;;;;;;19.52;90.78;96482.41;7398644;19;20379;-73
2023/06/05 10:17:25;;;;;;;5.13;4.73;;;;;;;19.10;91.15;96455.13;7396774;19;20383;-72
2023/06/05 10:19:52;;;;;;;5.63;4.83;;;;;;;19.13;93.13;96470.44;7398366;19;20642;-72
2023/06/05 10:22:21;;;;;;;5.63;5.13;;;;;;;19.04;92.84;96480.75;7396421;19;20380;-72
2023/06/05 10:24:56;;;;;;;6.67;6.07;;;;;;;19.19;91.60;96463.56;7398260;19;20398;-72
2023/06/05 10:28:01;;;;;;;5.20;4.80;;;;;;;19.34;92.91;96480.44;7396714;19;20480;-72
2023/06/05 10:30:51;;;;;;;5.57;5.10;;;;;;;19.44;93.58;96479.72;7395597;19;20412;-72
2023/06/05 10:33:30;;;;;;;5.73;5.33;;;;;;;19.45;93.88;96477.78;7396092;19;20762;-72
2023/06/05 10:36:06;;;;;;;6.40;5.90;;;;;;;19.64;93.36;96480.19;7397369;19;20373;-72
2023/06/05 10:38:34;;;;;;;6.07;5.47;;;;;;;19.57;93.99;96460.59;7395978;19;20409;-72
2023/06/05 10:41:03;;;;;;;5.60;5.07;;;;;;;19.53;92.92;96460.59;7397387;19;20371;-72
2023/06/05 10:43:31;;;;;;;7.60;7.00;;;;;;;19.40;94.35;96470.91;7396484;19;20919;-72
2023/06/05 10:46:19;;;;;;;7.07;5.50;;;;;;;19.88;93.09;96470.59;7394538;19;20378;-72
2023/06/05 10:49:09;;;;;;;5.70;5.30;;;;;;;20.67;89.91;96471.31;7396806;19;20393;-72
2023/06/05 10:51:43;;;;;;;6.60;4.63;;;;;;;21.33;85.82;96476.84;7395753;19;20362;-72
2023/06/05 10:54:15;;;;;;;6.10;5.50;;;;;;;21.87;84.31;96474.56;7394609;19;20403;-72
2023/06/05 10:57:05;;;;;;;4.87;4.47;;;;;;;22.25;79.45;96477.38;7396318;19;20375;-72
2023/06/05 10:59:35;;;;;;;5.63;5.13;;;;;;;22.37;79.08;96472.25;7395815;19;20438;-72
2023/06/05 11:02:19;;;;;;;7.43;5.67;;;;;;;22.42;78.20;96479.91;7396664;19;20385;-72
2023/06/05 11:04:49;;;;;;;6.87;4.67;;;;;;;22.31;78.90;96479.25;7396218;19;20385;-72
2023/06/05 11:07:27;;;;;;;6.20;5.03;;;;;;;21.89;80.08;96483.00;7394449;19;20389;-72
2023/06/05 11:10:23;;;;;;;11.13;5.47;;;;;;;21.79;81.56;96478.50;7395419;19;20400;-72
2023/06/05 11:12:50;;;;;;;5.40;4.83;;;;;;;22.25;79.79;96472.75;7393892;19;20400;-72
2023/06/05 11:15:23;;;;;;;11.10;5.00;;;;;;;21.60;81.21;96469.00;7393779;19;20368;-72
2023/06/05 11:17:50;;;;;;;5.20;4.80;;;;;;;21.19;83.04;96466.88;7396454;19;20369;-72
2023/06/05 11:20:23;;;;;;;5.00;4.60;;;;;;;21.49;79.17;96471.75;7394117;19;20422;-72
2023/06/05 11:22:53;;;;;;;5.93;5.43;;;;;;;21.69;77.81;96476.63;7395458;19;20431;-72
2023/06/05 11:25:30;;;;;;;5.70;4.80;;;;;;;21.67;77.71;96468.19;7394241;19;20917;-72
2023/06/05 11:28:07;;;;;;;10.93;5.07;;;;;;;22.33;77.76;96462.69;7396140;19;20376;-72
2023/06/05 11:30:44;;;;;;;11.33;5.33;;;;;;;22.88;76.60;96459.81;7392586;19;20402;-72
2023/06/05 11:33:20;;;;;;;5.77;5.17;;;;;;;21.97;75.46;96435.28;7394835;19;20407;-72
2023/06/05 11:35:50;;;;;;;6.13;5.27;;;;;;;22.01;74.47;96462.94;7395986;19;20900;-72
2023/06/05 11:38:32;;;;;;;5.83;5.03;;;;;;;22.75;72.44;96445.31;7394281;19;20903;-72
2023/06/05 11:40:59;;;;;;;4.40;4.10;;;;;;;22.44;72.23;96444.50;7395673;19;20905;-72
2023/06/05 11:43:26;;;;;;;5.00;4.60;;;;;;;22.11;72.68;96445.94;7393026;19;20439;-72